NWS3140 UUEE-ULAA
Flight info
| Callsign | NWS3140 |
|---|---|
| Flight time | N/A |
| Altitude | 41000 |
| Route | RILPO3E RILPO T753 DEGOP/K0863F400 T747 TIPNA P988 GITOT/K0856F390 P988 RUPAD T825 ABELU ABELU3M |
| Aircraft | A332/H-SDE3GHIJ2J3J5M1RVWXY/LB2D1 |
Departure
| Time | N/A |
|---|---|
| Airport | Sheremetyevo International Airport (UUEE) |
Arrival
| Time | 2026-04-21 17:44 |
|---|---|
| Airport | Talagi Airport (ULAA) |
| Time | Latitude | Longitude | Altitude | Speed | Heading |
|---|---|---|---|---|---|
| 2026-04-21 17:17 | 62.58805 | 39.55148 | 37123 ft | 456 kts | 12° |
| 2026-04-21 17:17 | 62.61899 | 39.56630 | 36584 ft | 455 kts | 12° |
| 2026-04-21 17:17 | 62.64966 | 39.58098 | 36048 ft | 455 kts | 12° |
| 2026-04-21 17:18 | 62.68047 | 39.59573 | 35511 ft | 455 kts | 12° |
| 2026-04-21 17:18 | 62.71118 | 39.61043 | 34977 ft | 457 kts | 12° |
| 2026-04-21 17:18 | 62.74213 | 39.62525 | 34437 ft | 458 kts | 12° |
| 2026-04-21 17:18 | 62.77306 | 39.64006 | 33894 ft | 458 kts | 12° |
| 2026-04-21 17:19 | 62.80387 | 39.65487 | 33351 ft | 454 kts | 13° |
| 2026-04-21 17:19 | 62.83459 | 39.67051 | 32808 ft | 450 kts | 13° |
| 2026-04-21 17:19 | 62.86490 | 39.68559 | 32277 ft | 446 kts | 13° |
| 2026-04-21 17:19 | 62.89488 | 39.70007 | 31755 ft | 442 kts | 12° |
| 2026-04-21 17:20 | 62.92485 | 39.71450 | 31233 ft | 439 kts | 12° |
| 2026-04-21 17:20 | 62.95446 | 39.72872 | 30717 ft | 435 kts | 12° |
| 2026-04-21 17:20 | 62.98377 | 39.74276 | 30207 ft | 432 kts | 12° |
| 2026-04-21 17:20 | 63.01284 | 39.75668 | 29701 ft | 428 kts | 12° |
| 2026-04-21 17:21 | 63.04161 | 39.77045 | 29199 ft | 425 kts | 12° |
| 2026-04-21 17:21 | 63.07040 | 39.78424 | 28697 ft | 422 kts | 12° |
| 2026-04-21 17:21 | 63.09894 | 39.79789 | 28199 ft | 418 kts | 12° |
| 2026-04-21 17:21 | 63.12699 | 39.81130 | 27724 ft | 415 kts | 12° |
| 2026-04-21 17:22 | 63.15510 | 39.82471 | 27245 ft | 412 kts | 12° |
| 2026-04-21 17:22 | 63.18280 | 39.83796 | 26765 ft | 409 kts | 12° |
| 2026-04-21 17:22 | 63.21051 | 39.85122 | 26282 ft | 406 kts | 12° |
| 2026-04-21 17:22 | 63.23781 | 39.86429 | 25806 ft | 403 kts | 12° |
| 2026-04-21 17:23 | 63.26498 | 39.87729 | 25332 ft | 400 kts | 12° |
| 2026-04-21 17:23 | 63.29191 | 39.89017 | 24861 ft | 397 kts | 12° |
| 2026-04-21 17:23 | 63.31871 | 39.90300 | 24393 ft | 394 kts | 12° |
| 2026-04-21 17:23 | 63.34540 | 39.91577 | 23927 ft | 391 kts | 12° |
| 2026-04-21 17:24 | 63.37159 | 39.92830 | 23469 ft | 388 kts | 12° |
| 2026-04-21 17:24 | 63.42338 | 39.95308 | 22563 ft | 383 kts | 12° |
| 2026-04-21 17:24 | 63.47427 | 39.98479 | 21680 ft | 378 kts | 19° |
| 2026-04-21 17:24 | 63.52289 | 40.02183 | 20846 ft | 373 kts | 19° |
| 2026-04-21 17:25 | 63.57158 | 40.05891 | 20007 ft | 368 kts | 19° |
| 2026-04-21 17:25 | 63.61981 | 40.09569 | 19176 ft | 363 kts | 19° |
| 2026-04-21 17:25 | 63.66697 | 40.13169 | 18364 ft | 359 kts | 18° |
| 2026-04-21 17:25 | 63.71414 | 40.16772 | 17550 ft | 355 kts | 18° |
| 2026-04-21 17:26 | 63.75816 | 40.21329 | 16813 ft | 350 kts | 30° |
| 2026-04-21 17:26 | 63.80022 | 40.26643 | 16108 ft | 347 kts | 29° |
| 2026-04-21 17:26 | 63.84182 | 40.31912 | 15411 ft | 343 kts | 29° |
| 2026-04-21 17:26 | 63.88338 | 40.37184 | 14715 ft | 340 kts | 29° |
| 2026-04-21 17:27 | 63.92408 | 40.42350 | 14034 ft | 336 kts | 28° |
| 2026-04-21 17:27 | 63.96448 | 40.47480 | 13358 ft | 333 kts | 28° |
| 2026-04-21 17:27 | 64.00492 | 40.52616 | 12681 ft | 330 kts | 28° |
| 2026-04-21 17:27 | 64.04443 | 40.57637 | 12020 ft | 326 kts | 28° |
| 2026-04-21 17:28 | 64.08415 | 40.62689 | 11355 ft | 323 kts | 28° |
| 2026-04-21 17:28 | 64.12277 | 40.67662 | 10713 ft | 315 kts | 30° |
| 2026-04-21 17:28 | 64.15965 | 40.72416 | 10158 ft | 296 kts | 30° |
| 2026-04-21 17:28 | 64.19501 | 40.77026 | 9852 ft | 291 kts | 30° |
| 2026-04-21 17:29 | 64.22963 | 40.81553 | 9154 ft | 285 kts | 30° |
| 2026-04-21 17:29 | 64.26383 | 40.86028 | 8499 ft | 282 kts | 30° |
| 2026-04-21 17:29 | 64.29770 | 40.90462 | 7853 ft | 280 kts | 30° |
| 2026-04-21 17:29 | 64.33137 | 40.94871 | 7213 ft | 277 kts | 30° |
| 2026-04-21 17:30 | 64.36433 | 40.99187 | 6586 ft | 275 kts | 30° |
| 2026-04-21 17:30 | 64.39733 | 41.03509 | 5959 ft | 272 kts | 29° |
| 2026-04-21 17:30 | 64.42967 | 41.07746 | 5331 ft | 263 kts | 29° |
| 2026-04-21 17:30 | 64.45998 | 41.11720 | 4752 ft | 227 kts | 29° |
| 2026-04-21 17:31 | 64.48661 | 41.12591 | 4359 ft | 182 kts | 342° |
| 2026-04-21 17:31 | 64.50896 | 41.10968 | 3879 ft | 158 kts | 342° |
| 2026-04-21 17:31 | 64.52824 | 41.09458 | 3529 ft | 137 kts | 341° |
| 2026-04-21 17:31 | 64.54597 | 41.07995 | 3272 ft | 136 kts | 340° |
| 2026-04-21 17:32 | 64.56366 | 41.06492 | 2989 ft | 135 kts | 340° |
| 2026-04-21 17:32 | 64.57825 | 41.04003 | 2693 ft | 135 kts | 295° |
| 2026-04-21 17:32 | 64.58472 | 40.99865 | 2302 ft | 158 kts | 284° |
| 2026-04-21 17:32 | 64.58837 | 40.94995 | 1846 ft | 138 kts | 278° |
| 2026-04-21 17:33 | 64.59073 | 40.90692 | 1488 ft | 132 kts | 277° |
| 2026-04-21 17:33 | 64.59287 | 40.86500 | 1139 ft | 131 kts | 277° |
| 2026-04-21 17:33 | 64.59497 | 40.82283 | 785 ft | 130 kts | 277° |
| 2026-04-21 17:33 | 64.59705 | 40.78154 | 456 ft | 136 kts | 277° |
| 2026-04-21 17:34 | 64.59926 | 40.73625 | 75 ft | 128 kts | 277° |
| 2026-04-21 17:34 | 64.60115 | 40.69731 | 467 ft | 171 kts | 276° |
| 2026-04-21 17:34 | 64.60243 | 40.66935 | 890 ft | 207 kts | 276° |
| 2026-04-21 17:34 | 64.60359 | 40.64553 | 1298 ft | 239 kts | 278° |
| 2026-04-21 17:35 | 64.60785 | 40.60496 | 2073 ft | 273 kts | 295° |
| 2026-04-21 17:35 | 64.61781 | 40.57008 | 3789 ft | 264 kts | 318° |
| 2026-04-21 17:35 | 64.63330 | 40.55037 | 5012 ft | 269 kts | 347° |
| 2026-04-21 17:35 | 64.65192 | 40.55080 | 5114 ft | 270 kts | 19° |
| 2026-04-21 17:36 | 64.66711 | 40.57600 | 5125 ft | 270 kts | 55° |
| 2026-04-21 17:36 | 64.67314 | 40.61665 | 5120 ft | 269 kts | 90° |
| 2026-04-21 17:36 | 64.66811 | 40.65751 | 5120 ft | 269 kts | 126° |
| 2026-04-21 17:36 | 64.65434 | 40.68662 | 5110 ft | 260 kts | 144° |
| 2026-04-21 17:37 | 64.64064 | 40.71291 | 5120 ft | 254 kts | 136° |
| 2026-04-21 17:37 | 64.62856 | 40.74258 | 5110 ft | 253 kts | 132° |
| 2026-04-21 17:37 | 64.60939 | 40.79281 | 5110 ft | 253 kts | 131° |
| 2026-04-21 17:37 | 64.58759 | 40.85612 | 5110 ft | 253 kts | 126° |
| 2026-04-21 17:38 | 64.56652 | 40.92244 | 5124 ft | 245 kts | 126° |
| 2026-04-21 17:38 | 64.54810 | 40.98065 | 4865 ft | 216 kts | 126° |
| 2026-04-21 17:38 | 64.54269 | 41.04221 | 4336 ft | 191 kts | 63° |
| 2026-04-21 17:38 | 64.55007 | 41.06604 | 4089 ft | 175 kts | 47° |
| 2026-04-21 17:39 | 64.55961 | 41.08156 | 3763 ft | 164 kts | 28° |
| 2026-04-21 17:39 | 64.56901 | 41.09330 | 3640 ft | 143 kts | 17° |
| 2026-04-21 17:39 | 64.57823 | 41.09267 | 3400 ft | 134 kts | 334° |
| 2026-04-21 17:39 | 64.58446 | 41.07745 | 3041 ft | 134 kts | 289° |
| 2026-04-21 17:40 | 64.58502 | 41.05592 | 2739 ft | 134 kts | 265° |
| 2026-04-21 17:40 | 64.58488 | 41.03332 | 2571 ft | 136 kts | 274° |
| 2026-04-21 17:40 | 64.58572 | 41.01181 | 2383 ft | 133 kts | 275° |
| 2026-04-21 17:40 | 64.58662 | 40.99047 | 2203 ft | 133 kts | 276° |
| 2026-04-21 17:41 | 64.58763 | 40.96888 | 2020 ft | 132 kts | 276° |
| 2026-04-21 17:41 | 64.58868 | 40.94765 | 1840 ft | 132 kts | 276° |
| 2026-04-21 17:41 | 64.58971 | 40.92651 | 1660 ft | 132 kts | 277° |
| 2026-04-21 17:41 | 64.59080 | 40.90551 | 1482 ft | 131 kts | 277° |
| 2026-04-21 17:42 | 64.59189 | 40.88422 | 1301 ft | 131 kts | 277° |
| 2026-04-21 17:42 | 64.59296 | 40.86327 | 1125 ft | 131 kts | 277° |
| 2026-04-21 17:42 | 64.59403 | 40.84209 | 946 ft | 130 kts | 277° |
| 2026-04-21 17:42 | 64.59505 | 40.82118 | 785 ft | 143 kts | 276° |
| 2026-04-21 17:43 | 64.59616 | 40.79908 | 586 ft | 132 kts | 277° |
| 2026-04-21 17:43 | 64.59723 | 40.77814 | 411 ft | 130 kts | 276° |
| 2026-04-21 17:43 | 64.59824 | 40.75707 | 226 ft | 129 kts | 277° |
| 2026-04-21 17:43 | 64.59928 | 40.73671 | 78 ft | 124 kts | 277° |
| 2026-04-21 17:44 | 64.60010 | 40.71959 | 75 ft | 92 kts | 276° |
| 2026-04-21 17:44 | 64.60081 | 40.70531 | 75 ft | 81 kts | 278° |
| 2026-04-21 17:44 | 64.60126 | 40.69593 | 75 ft | 37 kts | 277° |
| 2026-04-21 17:44 | 64.60144 | 40.69235 | 75 ft | 19 kts | 277° |
| 2026-04-21 17:45 | 64.60111 | 40.69073 | 75 ft | 9 kts | 198° |
| 2026-04-21 17:45 | 64.60066 | 40.69051 | 75 ft | 12 kts | 189° |
| 2026-04-21 17:45 | 64.59965 | 40.69025 | 75 ft | 5 kts | 164° |
| 2026-04-21 17:45 | 64.59939 | 40.69107 | 75 ft | 9 kts | 99° |
| 2026-04-21 17:46 | 64.59930 | 40.69257 | 75 ft | 10 kts | 97° |
| 2026-04-21 17:46 | 64.59921 | 40.69441 | 75 ft | 12 kts | 97° |
| 2026-04-21 17:46 | 64.59909 | 40.69704 | 75 ft | 19 kts | 96° |
| 2026-04-21 17:46 | 64.59893 | 40.70023 | 75 ft | 18 kts | 95° |
| 2026-04-21 17:47 | 64.59866 | 40.70134 | 75 ft | 4 kts | 167° |
| 2026-04-21 17:47 | 64.59827 | 40.70222 | 75 ft | 11 kts | 101° |
| 2026-04-21 17:47 | 64.59816 | 40.70284 | 75 ft | 1 kts | 152° |
| 2026-04-21 17:47 | 64.59801 | 40.70318 | 75 ft | 0 kts | 141° |